sensor_id;sensor_type;location;lat;lon;timestamp;temperature;humidity
65078;DHT22;51672;51.230;-2.322;2023-02-02T00:02:27;9.70;99.90
65078;DHT22;51672;51.230;-2.322;2023-02-02T00:06:09;9.80;99.90
65078;DHT22;51672;51.230;-2.322;2023-02-02T00:09:51;9.80;99.90
65078;DHT22;51672;51.230;-2.322;2023-02-02T00:13:33;9.70;99.90
65078;DHT22;51672;51.230;-2.322;2023-02-02T00:17:16;9.80;99.90
65078;DHT22;51672;51.230;-2.322;2023-02-02T00:20:58;9.70;99.90
65078;DHT22;51672;51.230;-2.322;2023-02-02T00:24:40;9.70;99.90
65078;DHT22;51672;51.230;-2.322;2023-02-02T00:28:22;9.80;99.90
65078;DHT22;51672;51.230;-2.322;2023-02-02T00:32:04;9.80;99.90
65078;DHT22;51672;51.230;-2.322;2023-02-02T00:35:46;9.70;99.90
65078;DHT22;51672;51.230;-2.322;2023-02-02T00:39:28;9.70;99.90
65078;DHT22;51672;51.230;-2.322;2023-02-02T00:43:10;9.70;99.90
65078;DHT22;51672;51.230;-2.322;2023-02-02T00:46:52;9.70;99.90
65078;DHT22;51672;51.230;-2.322;2023-02-02T00:50:34;9.70;99.90
65078;DHT22;51672;51.230;-2.322;2023-02-02T00:54:16;9.70;99.90
65078;DHT22;51672;51.230;-2.322;2023-02-02T00:57:58;9.70;99.90
65078;DHT22;51672;51.230;-2.322;2023-02-02T01:01:40;9.70;99.90
65078;DHT22;51672;51.230;-2.322;2023-02-02T01:05:23;9.60;99.90
65078;DHT22;51672;51.230;-2.322;2023-02-02T01:09:05;9.60;99.90
65078;DHT22;51672;51.230;-2.322;2023-02-02T01:12:47;9.60;99.90
65078;DHT22;51672;51.230;-2.322;2023-02-02T01:16:30;9.60;99.90
65078;DHT22;51672;51.230;-2.322;2023-02-02T01:20:18;9.50;99.90
65078;DHT22;51672;51.230;-2.322;2023-02-02T01:24:02;9.50;99.90
65078;DHT22;51672;51.230;-2.322;2023-02-02T01:27:44;9.40;99.90
65078;DHT22;51672;51.230;-2.322;2023-02-02T01:31:26;9.30;99.90
65078;DHT22;51672;51.230;-2.322;2023-02-02T01:35:08;9.30;99.90
65078;DHT22;51672;51.230;-2.322;2023-02-02T01:38:51;9.30;99.90
65078;DHT22;51672;51.230;-2.322;2023-02-02T01:42:33;9.30;99.90
65078;DHT22;51672;51.230;-2.322;2023-02-02T01:46:20;9.30;99.90
65078;DHT22;51672;51.230;-2.322;2023-02-02T01:50:03;9.40;99.90
65078;DHT22;51672;51.230;-2.322;2023-02-02T01:53:47;9.40;99.90
65078;DHT22;51672;51.230;-2.322;2023-02-02T01:57:37;9.40;99.90
65078;DHT22;51672;51.230;-2.322;2023-02-02T02:01:20;9.40;99.90
65078;DHT22;51672;51.230;-2.322;2023-02-02T02:05:04;9.40;99.90
65078;DHT22;51672;51.230;-2.322;2023-02-02T02:08:54;9.40;99.90
65078;DHT22;51672;51.230;-2.322;2023-02-02T02:12:37;9.40;99.90
65078;DHT22;51672;51.230;-2.322;2023-02-02T02:25:08;9.20;99.90
65078;DHT22;51672;51.230;-2.322;2023-02-02T02:41:33;9.40;99.90
65078;DHT22;51672;51.230;-2.322;2023-02-02T02:45:20;9.40;99.90
65078;DHT22;51672;51.230;-2.322;2023-02-02T02:49:03;9.40;99.90
65078;DHT22;51672;51.230;-2.322;2023-02-02T02:52:47;9.40;99.90
65078;DHT22;51672;51.230;-2.322;2023-02-02T02:56:43;9.40;99.90
65078;DHT22;51672;51.230;-2.322;2023-02-02T03:00:38;9.50;99.90
65078;DHT22;51672;51.230;-2.322;2023-02-02T03:04:39;9.50;99.90
65078;DHT22;51672;51.230;-2.322;2023-02-02T03:08:30;9.50;99.90
65078;DHT22;51672;51.230;-2.322;2023-02-02T03:12:15;9.50;99.90
65078;DHT22;51672;51.230;-2.322;2023-02-02T03:15:58;9.50;99.90
65078;DHT22;51672;51.230;-2.322;2023-02-02T03:19:40;9.50;99.90
65078;DHT22;51672;51.230;-2.322;2023-02-02T03:23:22;9.60;99.90
65078;DHT22;51672;51.230;-2.322;2023-02-02T03:27:04;9.60;99.90
65078;DHT22;51672;51.230;-2.322;2023-02-02T03:30:47;9.60;99.90
65078;DHT22;51672;51.230;-2.322;2023-02-02T03:34:29;9.60;99.90
65078;DHT22;51672;51.230;-2.322;2023-02-02T03:38:11;9.60;99.90
65078;DHT22;51672;51.230;-2.322;2023-02-02T03:41:53;9.60;99.90
65078;DHT22;51672;51.230;-2.322;2023-02-02T03:45:35;9.60;99.90
65078;DHT22;51672;51.230;-2.322;2023-02-02T03:49:18;9.50;99.90
65078;DHT22;51672;51.230;-2.322;2023-02-02T03:53:00;9.50;99.90
65078;DHT22;51672;51.230;-2.322;2023-02-02T03:56:42;9.50;99.90
65078;DHT22;51672;51.230;-2.322;2023-02-02T04:00:24;9.50;99.90
65078;DHT22;51672;51.230;-2.322;2023-02-02T04:04:06;9.50;99.90
65078;DHT22;51672;51.230;-2.322;2023-02-02T04:07:48;9.50;99.90
65078;DHT22;51672;51.230;-2.322;2023-02-02T04:11:30;9.50;99.90
65078;DHT22;51672;51.230;-2.322;2023-02-02T04:15:12;9.40;99.90
65078;DHT22;51672;51.230;-2.322;2023-02-02T04:18:54;9.30;99.90
65078;DHT22;51672;51.230;-2.322;2023-02-02T04:22:36;9.30;99.90
65078;DHT22;51672;51.230;-2.322;2023-02-02T04:26:18;9.20;99.90
65078;DHT22;51672;51.230;-2.322;2023-02-02T04:30:00;9.10;99.90
65078;DHT22;51672;51.230;-2.322;2023-02-02T04:33:42;9.10;99.90
65078;DHT22;51672;51.230;-2.322;2023-02-02T04:37:24;9.00;99.90
65078;DHT22;51672;51.230;-2.322;2023-02-02T04:41:08;8.90;99.90
65078;DHT22;51672;51.230;-2.322;2023-02-02T04:44:50;8.80;99.90
65078;DHT22;51672;51.230;-2.322;2023-02-02T04:48:32;8.70;99.90
65078;DHT22;51672;51.230;-2.322;2023-02-02T04:52:14;8.60;99.90
65078;DHT22;51672;51.230;-2.322;2023-02-02T04:55:57;8.50;99.90
65078;DHT22;51672;51.230;-2.322;2023-02-02T04:59:45;8.50;99.90
65078;DHT22;51672;51.230;-2.322;2023-02-02T05:03:27;8.40;99.90
65078;DHT22;51672;51.230;-2.322;2023-02-02T05:07:09;8.50;99.90
65078;DHT22;51672;51.230;-2.322;2023-02-02T05:10:51;8.50;99.90
65078;DHT22;51672;51.230;-2.322;2023-02-02T05:14:33;8.70;99.90
65078;DHT22;51672;51.230;-2.322;2023-02-02T05:18:15;8.70;99.90
65078;DHT22;51672;51.230;-2.322;2023-02-02T05:21:57;8.80;99.90
65078;DHT22;51672;51.230;-2.322;2023-02-02T05:25:39;8.90;99.90
65078;DHT22;51672;51.230;-2.322;2023-02-02T05:29:22;9.00;99.90
65078;DHT22;51672;51.230;-2.322;2023-02-02T05:33:04;9.00;99.90
65078;DHT22;51672;51.230;-2.322;2023-02-02T05:36:46;9.10;99.90
65078;DHT22;51672;51.230;-2.322;2023-02-02T05:40:28;9.10;99.90
65078;DHT22;51672;51.230;-2.322;2023-02-02T05:44:12;9.10;99.90
65078;DHT22;51672;51.230;-2.322;2023-02-02T05:47:54;9.00;99.90
65078;DHT22;51672;51.230;-2.322;2023-02-02T05:51:40;9.00;99.90
65078;DHT22;51672;51.230;-2.322;2023-02-02T05:55:24;8.90;99.90
65078;DHT22;51672;51.230;-2.322;2023-02-02T05:59:06;8.90;99.90
65078;DHT22;51672;51.230;-2.322;2023-02-02T06:02:48;8.80;99.90
65078;DHT22;51672;51.230;-2.322;2023-02-02T06:06:30;8.80;99.90
65078;DHT22;51672;51.230;-2.322;2023-02-02T06:10:12;8.90;99.90
65078;DHT22;51672;51.230;-2.322;2023-02-02T06:13:55;8.90;99.90
65078;DHT22;51672;51.230;-2.322;2023-02-02T06:17:37;8.90;99.90
65078;DHT22;51672;51.230;-2.322;2023-02-02T06:21:19;8.90;99.90
65078;DHT22;51672;51.230;-2.322;2023-02-02T06:25:04;8.90;99.90
65078;DHT22;51672;51.230;-2.322;2023-02-02T06:28:51;9.00;99.90
65078;DHT22;51672;51.230;-2.322;2023-02-02T06:32:33;9.00;99.90
65078;DHT22;51672;51.230;-2.322;2023-02-02T06:36:15;9.00;99.90
65078;DHT22;51672;51.230;-2.322;2023-02-02T06:39:57;9.00;99.90
65078;DHT22;51672;51.230;-2.322;2023-02-02T06:43:39;8.90;99.90
65078;DHT22;51672;51.230;-2.322;2023-02-02T06:47:21;8.90;99.90
65078;DHT22;51672;51.230;-2.322;2023-02-02T06:51:06;8.80;99.90
65078;DHT22;51672;51.230;-2.322;2023-02-02T06:54:48;8.80;99.90
65078;DHT22;51672;51.230;-2.322;2023-02-02T06:58:32;8.70;99.90
65078;DHT22;51672;51.230;-2.322;2023-02-02T07:02:14;8.60;99.90
65078;DHT22;51672;51.230;-2.322;2023-02-02T07:05:56;8.60;99.90
65078;DHT22;51672;51.230;-2.322;2023-02-02T07:09:38;8.60;99.90
65078;DHT22;51672;51.230;-2.322;2023-02-02T07:13:20;8.50;99.90
65078;DHT22;51672;51.230;-2.322;2023-02-02T07:17:02;8.50;99.90
65078;DHT22;51672;51.230;-2.322;2023-02-02T07:20:44;8.50;99.90
65078;DHT22;51672;51.230;-2.322;2023-02-02T07:24:26;8.50;99.90
65078;DHT22;51672;51.230;-2.322;2023-02-02T07:28:08;8.50;99.90
65078;DHT22;51672;51.230;-2.322;2023-02-02T07:31:50;8.60;99.90
65078;DHT22;51672;51.230;-2.322;2023-02-02T07:35:32;8.60;99.90
65078;DHT22;51672;51.230;-2.322;2023-02-02T07:39:15;8.60;99.90
65078;DHT22;51672;51.230;-2.322;2023-02-02T07:42:57;8.60;99.90
65078;DHT22;51672;51.230;-2.322;2023-02-02T07:46:43;8.60;99.90
65078;DHT22;51672;51.230;-2.322;2023-02-02T07:50:27;8.60;99.90
65078;DHT22;51672;51.230;-2.322;2023-02-02T07:54:09;8.60;99.90
65078;DHT22;51672;51.230;-2.322;2023-02-02T07:57:52;8.60;99.90
65078;DHT22;51672;51.230;-2.322;2023-02-02T08:01:36;8.70;99.90
65078;DHT22;51672;51.230;-2.322;2023-02-02T08:05:18;8.60;99.90
65078;DHT22;51672;51.230;-2.322;2023-02-02T08:09:02;8.70;99.90
65078;DHT22;51672;51.230;-2.322;2023-02-02T08:13:17;8.70;99.90
65078;DHT22;51672;51.230;-2.322;2023-02-02T08:16:59;8.70;99.90
65078;DHT22;51672;51.230;-2.322;2023-02-02T08:21:14;8.80;99.90
65078;DHT22;51672;51.230;-2.322;2023-02-02T08:29:06;8.90;99.90
65078;DHT22;51672;51.230;-2.322;2023-02-02T08:36:59;9.10;99.90
65078;DHT22;51672;51.230;-2.322;2023-02-02T08:40:41;9.20;99.90
65078;DHT22;51672;51.230;-2.322;2023-02-02T08:44:50;9.30;99.90
65078;DHT22;51672;51.230;-2.322;2023-02-02T08:49:02;9.40;99.90
65078;DHT22;51672;51.230;-2.322;2023-02-02T08:52:45;9.50;99.90
65078;DHT22;51672;51.230;-2.322;2023-02-02T08:56:30;9.50;99.90
65078;DHT22;51672;51.230;-2.322;2023-02-02T09:00:26;9.60;99.90
65078;DHT22;51672;51.230;-2.322;2023-02-02T09:04:13;9.70;99.90
65078;DHT22;51672;51.230;-2.322;2023-02-02T09:08:29;9.70;99.90
65078;DHT22;51672;51.230;-2.322;2023-02-02T09:12:11;9.70;99.90
65078;DHT22;51672;51.230;-2.322;2023-02-02T09:16:05;9.80;99.90
65078;DHT22;51672;51.230;-2.322;2023-02-02T09:19:48;9.90;99.90
65078;DHT22;51672;51.230;-2.322;2023-02-02T09:27:41;10.00;99.90
65078;DHT22;51672;51.230;-2.322;2023-02-02T09:35:51;10.10;99.90
65078;DHT22;51672;51.230;-2.322;2023-02-02T09:39:44;10.20;99.90
65078;DHT22;51672;51.230;-2.322;2023-02-02T09:48:05;10.30;99.90
65078;DHT22;51672;51.230;-2.322;2023-02-02T09:55:57;10.50;99.90
65078;DHT22;51672;51.230;-2.322;2023-02-02T10:00:00;10.70;99.90
65078;DHT22;51672;51.230;-2.322;2023-02-02T10:16:15;10.90;99.90
65078;DHT22;51672;51.230;-2.322;2023-02-02T10:36:44;11.10;99.90
65078;DHT22;51672;51.230;-2.322;2023-02-02T10:48:50;11.20;99.90
65078;DHT22;51672;51.230;-2.322;2023-02-02T11:01:08;11.10;99.90
65078;DHT22;51672;51.230;-2.322;2023-02-02T11:22:44;11.40;99.90
65078;DHT22;51672;51.230;-2.322;2023-02-02T11:39:28;11.70;99.90
65078;DHT22;51672;51.230;-2.322;2023-02-02T11:47:28;11.50;99.90
65078;DHT22;51672;51.230;-2.322;2023-02-02T11:55:31;11.30;99.90
65078;DHT22;51672;51.230;-2.322;2023-02-02T12:07:49;11.40;99.90
65078;DHT22;51672;51.230;-2.322;2023-02-02T13:22:09;13.30;99.90
65078;DHT22;51672;51.230;-2.322;2023-02-02T14:08:23;13.00;99.90
65078;DHT22;51672;51.230;-2.322;2023-02-02T16:43:32;11.60;99.90
65078;DHT22;51672;51.230;-2.322;2023-02-02T16:51:31;11.60;99.90
65078;DHT22;51672;51.230;-2.322;2023-02-02T16:55:16;11.60;99.90
65078;DHT22;51672;51.230;-2.322;2023-02-02T17:03:16;11.50;99.90
65078;DHT22;51672;51.230;-2.322;2023-02-02T17:07:34;11.40;99.90
65078;DHT22;51672;51.230;-2.322;2023-02-02T17:11:38;11.40;99.90
65078;DHT22;51672;51.230;-2.322;2023-02-02T17:16:04;11.40;99.90
65078;DHT22;51672;51.230;-2.322;2023-02-02T17:24:24;11.40;99.90
65078;DHT22;51672;51.230;-2.322;2023-02-02T17:28:25;11.50;99.90
65078;DHT22;51672;51.230;-2.322;2023-02-02T17:44:19;11.30;99.90
65078;DHT22;51672;51.230;-2.322;2023-02-02T17:48:04;11.20;99.90
65078;DHT22;51672;51.230;-2.322;2023-02-02T17:51:59;11.30;99.90
65078;DHT22;51672;51.230;-2.322;2023-02-02T17:55:52;11.20;99.90
65078;DHT22;51672;51.230;-2.322;2023-02-02T17:59:49;11.20;99.90
65078;DHT22;51672;51.230;-2.322;2023-02-02T18:03:36;11.20;99.90
65078;DHT22;51672;51.230;-2.322;2023-02-02T18:07:20;11.30;99.90
65078;DHT22;51672;51.230;-2.322;2023-02-02T18:11:03;11.30;99.90
65078;DHT22;51672;51.230;-2.322;2023-02-02T18:14:46;11.30;99.90
65078;DHT22;51672;51.230;-2.322;2023-02-02T18:18:32;11.30;99.90
65078;DHT22;51672;51.230;-2.322;2023-02-02T18:22:18;11.30;99.90
65078;DHT22;51672;51.230;-2.322;2023-02-02T18:26:18;11.30;99.90
65078;DHT22;51672;51.230;-2.322;2023-02-02T18:30:12;11.30;99.90
65078;DHT22;51672;51.230;-2.322;2023-02-02T18:34:02;11.30;99.90
65078;DHT22;51672;51.230;-2.322;2023-02-02T18:37:49;11.30;99.90
65078;DHT22;51672;51.230;-2.322;2023-02-02T18:41:36;11.20;99.90
65078;DHT22;51672;51.230;-2.322;2023-02-02T18:45:35;11.20;99.90
65078;DHT22;51672;51.230;-2.322;2023-02-02T18:49:20;11.20;99.90
65078;DHT22;51672;51.230;-2.322;2023-02-02T18:53:02;11.20;99.90
65078;DHT22;51672;51.230;-2.322;2023-02-02T18:56:59;11.10;99.90
65078;DHT22;51672;51.230;-2.322;2023-02-02T19:00:56;10.90;99.90
65078;DHT22;51672;51.230;-2.322;2023-02-02T19:05:01;10.80;99.90
65078;DHT22;51672;51.230;-2.322;2023-02-02T19:09:03;10.60;99.90
65078;DHT22;51672;51.230;-2.322;2023-02-02T19:16:44;10.50;99.90
65078;DHT22;51672;51.230;-2.322;2023-02-02T19:20:50;10.50;99.90
65078;DHT22;51672;51.230;-2.322;2023-02-02T19:24:42;10.50;99.90
65078;DHT22;51672;51.230;-2.322;2023-02-02T19:28:29;10.40;99.90
65078;DHT22;51672;51.230;-2.322;2023-02-02T19:32:16;10.40;99.90
65078;DHT22;51672;51.230;-2.322;2023-02-02T19:35:59;10.30;99.90
65078;DHT22;51672;51.230;-2.322;2023-02-02T19:39:42;10.30;99.90
65078;DHT22;51672;51.230;-2.322;2023-02-02T19:43:27;10.30;99.90
65078;DHT22;51672;51.230;-2.322;2023-02-02T19:47:28;10.30;99.90
65078;DHT22;51672;51.230;-2.322;2023-02-02T19:51:39;10.30;99.90
65078;DHT22;51672;51.230;-2.322;2023-02-02T19:59:15;10.40;99.90
65078;DHT22;51672;51.230;-2.322;2023-02-02T20:03:08;10.40;99.90
65078;DHT22;51672;51.230;-2.322;2023-02-02T20:06:53;10.50;99.90
65078;DHT22;51672;51.230;-2.322;2023-02-02T20:10:41;10.50;99.90
65078;DHT22;51672;51.230;-2.322;2023-02-02T20:14:29;10.50;99.90
65078;DHT22;51672;51.230;-2.322;2023-02-02T20:18:18;10.50;99.90
65078;DHT22;51672;51.230;-2.322;2023-02-02T20:22:00;10.50;99.90
65078;DHT22;51672;51.230;-2.322;2023-02-02T20:25:43;10.50;99.90
65078;DHT22;51672;51.230;-2.322;2023-02-02T20:29:28;10.50;99.90
65078;DHT22;51672;51.230;-2.322;2023-02-02T20:33:22;10.60;99.90
65078;DHT22;51672;51.230;-2.322;2023-02-02T20:37:15;10.60;99.90
65078;DHT22;51672;51.230;-2.322;2023-02-02T20:41:00;10.70;99.90
65078;DHT22;51672;51.230;-2.322;2023-02-02T20:44:45;10.70;99.90
65078;DHT22;51672;51.230;-2.322;2023-02-02T20:48:27;10.60;99.90
65078;DHT22;51672;51.230;-2.322;2023-02-02T20:52:14;10.60;99.90
65078;DHT22;51672;51.230;-2.322;2023-02-02T20:56:02;10.70;99.90
65078;DHT22;51672;51.230;-2.322;2023-02-02T20:59:49;10.60;99.90
65078;DHT22;51672;51.230;-2.322;2023-02-02T21:03:38;10.50;99.90
65078;DHT22;51672;51.230;-2.322;2023-02-02T21:07:20;10.40;99.90
65078;DHT22;51672;51.230;-2.322;2023-02-02T21:11:02;10.30;99.90
65078;DHT22;51672;51.230;-2.322;2023-02-02T21:14:45;10.20;99.90
65078;DHT22;51672;51.230;-2.322;2023-02-02T21:18:27;10.10;99.90
65078;DHT22;51672;51.230;-2.322;2023-02-02T21:22:13;10.10;99.90
65078;DHT22;51672;51.230;-2.322;2023-02-02T21:25:55;10.10;99.90
65078;DHT22;51672;51.230;-2.322;2023-02-02T21:29:37;10.00;99.90
65078;DHT22;51672;51.230;-2.322;2023-02-02T21:33:19;10.00;99.90
65078;DHT22;51672;51.230;-2.322;2023-02-02T21:37:01;10.00;99.90
65078;DHT22;51672;51.230;-2.322;2023-02-02T21:40:43;10.10;99.90
65078;DHT22;51672;51.230;-2.322;2023-02-02T21:44:28;10.20;99.90
65078;DHT22;51672;51.230;-2.322;2023-02-02T21:48:20;10.20;99.90
65078;DHT22;51672;51.230;-2.322;2023-02-02T21:52:19;10.20;99.90
65078;DHT22;51672;51.230;-2.322;2023-02-02T21:56:01;10.20;99.90
65078;DHT22;51672;51.230;-2.322;2023-02-02T21:59:44;10.20;99.90
65078;DHT22;51672;51.230;-2.322;2023-02-02T22:03:39;10.10;99.90
65078;DHT22;51672;51.230;-2.322;2023-02-02T22:07:27;10.20;99.90
65078;DHT22;51672;51.230;-2.322;2023-02-02T22:11:55;10.10;99.90
65078;DHT22;51672;51.230;-2.322;2023-02-02T22:15:48;10.20;99.90
65078;DHT22;51672;51.230;-2.322;2023-02-02T22:19:37;10.20;99.90
65078;DHT22;51672;51.230;-2.322;2023-02-02T22:23:21;10.20;99.90
65078;DHT22;51672;51.230;-2.322;2023-02-02T22:27:22;10.10;99.90
65078;DHT22;51672;51.230;-2.322;2023-02-02T22:31:05;10.20;99.90
65078;DHT22;51672;51.230;-2.322;2023-02-02T22:34:50;10.20;99.90
65078;DHT22;51672;51.230;-2.322;2023-02-02T22:38:32;10.30;99.90
65078;DHT22;51672;51.230;-2.322;2023-02-02T22:42:14;10.30;99.90
65078;DHT22;51672;51.230;-2.322;2023-02-02T22:45:59;10.40;99.90
65078;DHT22;51672;51.230;-2.322;2023-02-02T22:49:43;10.40;99.90
65078;DHT22;51672;51.230;-2.322;2023-02-02T22:53:30;10.40;99.90
65078;DHT22;51672;51.230;-2.322;2023-02-02T22:57:13;10.40;99.90
65078;DHT22;51672;51.230;-2.322;2023-02-02T23:00:58;10.50;99.90
65078;DHT22;51672;51.230;-2.322;2023-02-02T23:04:40;10.50;99.90
65078;DHT22;51672;51.230;-2.322;2023-02-02T23:08:22;10.50;99.90
65078;DHT22;51672;51.230;-2.322;2023-02-02T23:12:05;10.50;99.90
65078;DHT22;51672;51.230;-2.322;2023-02-02T23:15:47;10.50;99.90
65078;DHT22;51672;51.230;-2.322;2023-02-02T23:19:30;10.50;99.90
65078;DHT22;51672;51.230;-2.322;2023-02-02T23:23:13;10.50;99.90
65078;DHT22;51672;51.230;-2.322;2023-02-02T23:26:57;10.50;99.90
65078;DHT22;51672;51.230;-2.322;2023-02-02T23:30:42;10.40;99.90
65078;DHT22;51672;51.230;-2.322;2023-02-02T23:34:24;10.30;99.90
65078;DHT22;51672;51.230;-2.322;2023-02-02T23:38:08;10.30;99.90
65078;DHT22;51672;51.230;-2.322;2023-02-02T23:41:50;10.10;99.90
65078;DHT22;51672;51.230;-2.322;2023-02-02T23:45:32;10.10;99.90
65078;DHT22;51672;51.230;-2.322;2023-02-02T23:49:14;10.00;99.90
65078;DHT22;51672;51.230;-2.322;2023-02-02T23:52:57;9.90;99.90
65078;DHT22;51672;51.230;-2.322;2023-02-02T23:56:39;9.90;99.90
